• Join FlightAware (Why Join?)
  • Login
  • US Flag 
Trick or treat! (Boo!!) 
02:04PM EDT


 

Airport Tracker/Info


-or-


 

Live Flight TrackerFlight Track Log ✈ N600TR ✈ 22-Aug-2013 ✈ KBHM - KATL

Flight Track Log - Related Links

Times and Time Zones

All times are in EDT time to prevent confusion due to time zone crossing. See the N600TR flight status page for this flight to view local times or setup timezone preferences in your user account.

Time Position Orientation Groundspeed Altitude Reporting Facility
EDT Latitude Longitude Course Direction KTS MPH feet Rate Location/Type
08:33PM 33.5747 -86.7367 140° Southeast 174 200 1,500  Level Atlanta Center
08:34PM 33.5842 -86.6869 77° East 225 259 2,800 1,560 Climbing Atlanta Center
08:35PM 33.5633 -86.5817 103° East 253 291 4,900 2,040 Climbing Atlanta Center
08:36PM 33.5381 -86.4961 109° East 266 306 7,600 2,400 Climbing Atlanta Center
08:37PM 33.5147 -86.4083 108° East 266 306 9,800 1,740 Climbing Atlanta Center
08:38PM 33.4894 -86.3131 108° East 278 320 11,100 1,200 Climbing Atlanta Center
08:39PM 33.5840 -86.2323 140° Southeast  Level Estimated
08:39PM 33.4558 -86.2025 110° East 315 362 12,200  Level Atlanta Center
08:40PM 33.4164 -86.0794 111° Southeast 358 412 13,800 1,440 Climbing Atlanta Center
08:41PM 33.3806 -85.9619 110° East 375 432 15,100 600 Climbing Atlanta Center
08:42PM 33.3489 -85.8442 108° East 375 432 15,000 -60 Descending Atlanta Center
08:43PM 33.3169 -85.7442 111° Southeast 367 422 15,000  Level Atlanta Center
08:44PM 33.2853 -85.6192 107° East 362 417 15,000  Level Atlanta Center
08:45PM 33.2533 -85.5019 108° East 357 411 15,000 -120 Level Atlanta Center
08:46PM 33.2419 -85.3950 97° East 357 411 14,800 -540 Descending Atlanta Center
08:47PM 33.2308 -85.2681 96° East 357 411 14,000 -420 Descending Atlanta Center
08:48PM 33.2175 -85.1461 97° East 357 411 14,000 -360 Level Atlanta Center
08:49PM 33.2183 -85.0247 89° East 362 417 13,300 -1,020 Descending Atlanta Center
08:50PM 33.2756 -84.9208 57° Northeast 357 411 12,000 -660 Descending Atlanta Center
08:51PM 33.3283 -84.8294 55° Northeast 346 398 12,000  Level Atlanta Center
08:52PM 33.3833 -84.7303 56° Northeast 346 398 12,000  Level Atlanta Center
08:53PM 33.4483 -84.6389 50° Northeast 352 405 12,000  Level Atlanta Center
08:54PM 33.5114 -84.5569 47° Northeast 346 398 12,000 -600 Level Atlanta Center
08:55PM 33.5306 -84.4675 76° East 274 315 10,900 -1,320 Descending Atlanta Center
08:56PM 33.5267 -84.3803 93° East 262 302 9,400 -1,680 Descending Atlanta Center
08:57PM 33.5206 -84.3031 95° East 245 282 7,600 -1,740 Descending Atlanta Center
08:59PM 33.5667 -84.2333 52° Northeast 199 229 5,100 -1,620 Descending Atlanta TRACON
09:00PM 33.6167 -84.2500 344° North 179 206 3,600 -1,320 Descending Atlanta TRACON
09:01PM 33.6333 -84.3000 292° West 158 182 2,700 -840 Descending Atlanta TRACON
09:02PM 33.6333 -84.3500 270° West 152 175 2,100 -720 Descending Atlanta TRACON
09:03PM 33.6333 -84.4000 270° West 154 177 1,400 -720 Descending Atlanta TRACON